sensor_id;sensor_type;location;lat;lon;timestamp;noise_LAeq;noise_LA_min;noise_LA_max;noise_LA01;noise_LA95
72028;Laerm;59781;52.090;5.030;2023-04-01T00:01:07;41.73;38.58;45.87;;
72028;Laerm;59781;52.090;5.030;2023-04-01T00:03:34;41.99;38.49;57.75;;
72028;Laerm;59781;52.090;5.030;2023-04-01T00:06:01;41.60;37.67;58.83;;
72028;Laerm;59781;52.090;5.030;2023-04-01T00:08:28;41.76;38.30;56.92;;
72028;Laerm;59781;52.090;5.030;2023-04-01T00:10:54;41.70;38.20;56.62;;
72028;Laerm;59781;52.090;5.030;2023-04-01T00:13:21;41.46;38.56;47.28;;
72028;Laerm;59781;52.090;5.030;2023-04-01T00:15:46;41.89;38.04;54.44;;
72028;Laerm;59781;52.090;5.030;2023-04-01T00:18:13;41.04;37.75;56.48;;
72028;Laerm;59781;52.090;5.030;2023-04-01T00:20:45;40.52;38.04;50.22;;
72028;Laerm;59781;52.090;5.030;2023-04-01T00:23:11;42.23;37.86;57.65;;
72028;Laerm;59781;52.090;5.030;2023-04-01T00:25:37;40.52;38.04;46.34;;
72028;Laerm;59781;52.090;5.030;2023-04-01T00:28:03;43.06;38.09;65.35;;
72028;Laerm;59781;52.090;5.030;2023-04-01T00:30:28;40.87;38.27;47.47;;
72028;Laerm;59781;52.090;5.030;2023-04-01T00:32:54;41.05;38.53;47.38;;
72028;Laerm;59781;52.090;5.030;2023-04-01T00:35:20;41.82;38.29;53.72;;
72028;Laerm;59781;52.090;5.030;2023-04-01T00:37:46;41.15;38.30;55.91;;
72028;Laerm;59781;52.090;5.030;2023-04-01T00:40:33;40.14;37.40;51.96;;
72028;Laerm;59781;52.090;5.030;2023-04-01T00:43:00;40.85;37.96;57.00;;
72028;Laerm;59781;52.090;5.030;2023-04-01T00:45:39;42.00;38.27;55.85;;
72028;Laerm;59781;52.090;5.030;2023-04-01T00:48:16;41.97;38.88;52.39;;
72028;Laerm;59781;52.090;5.030;2023-04-01T00:50:53;45.84;38.48;77.48;;
72028;Laerm;59781;52.090;5.030;2023-04-01T00:53:22;41.89;38.40;56.17;;
72028;Laerm;59781;52.090;5.030;2023-04-01T00:55:58;44.22;38.68;63.24;;
72028;Laerm;59781;52.090;5.030;2023-04-01T00:58:32;41.82;38.30;47.25;;
72028;Laerm;59781;52.090;5.030;2023-04-01T01:01:00;43.43;38.33;74.51;;
72028;Laerm;59781;52.090;5.030;2023-04-01T01:03:27;43.55;38.42;64.60;;
72028;Laerm;59781;52.090;5.030;2023-04-01T01:09:28;41.13;38.15;56.52;;
72028;Laerm;59781;52.090;5.030;2023-04-01T01:12:13;42.90;38.59;71.13;;
72028;Laerm;59781;52.090;5.030;2023-04-01T01:20:37;47.57;39.84;71.17;;
72028;Laerm;59781;52.090;5.030;2023-04-01T01:23:29;43.22;38.88;66.09;;
72028;Laerm;59781;52.090;5.030;2023-04-01T01:31:50;42.29;38.56;61.16;;
72028;Laerm;59781;52.090;5.030;2023-04-01T01:34:51;46.07;38.61;77.32;;
72028;Laerm;59781;52.090;5.030;2023-04-01T01:37:26;41.61;38.02;68.96;;
72028;Laerm;59781;52.090;5.030;2023-04-01T01:40:01;41.27;38.29;52.54;;
72028;Laerm;59781;52.090;5.030;2023-04-01T01:42:33;42.47;39.02;53.28;;
72028;Laerm;59781;52.090;5.030;2023-04-01T01:45:05;44.40;38.78;74.01;;
72028;Laerm;59781;52.090;5.030;2023-04-01T01:47:35;42.75;38.74;65.96;;
72028;Laerm;59781;52.090;5.030;2023-04-01T01:50:05;42.93;38.39;61.73;;
72028;Laerm;59781;52.090;5.030;2023-04-01T01:52:31;43.81;38.11;74.01;;
72028;Laerm;59781;52.090;5.030;2023-04-01T01:54:58;42.79;38.17;73.33;;
72028;Laerm;59781;52.090;5.030;2023-04-01T01:57:34;41.88;38.17;54.81;;
72028;Laerm;59781;52.090;5.030;2023-04-01T02:00:10;45.80;38.86;73.13;;
72028;Laerm;59781;52.090;5.030;2023-04-01T02:02:48;42.86;38.30;60.51;;
72028;Laerm;59781;52.090;5.030;2023-04-01T02:05:25;42.26;38.67;62.40;;
72028;Laerm;59781;52.090;5.030;2023-04-01T02:08:29;42.49;38.44;61.40;;
72028;Laerm;59781;52.090;5.030;2023-04-01T02:11:08;41.91;37.80;55.65;;
72028;Laerm;59781;52.090;5.030;2023-04-01T02:14:08;41.77;37.75;61.21;;
72028;Laerm;59781;52.090;5.030;2023-04-01T02:16:51;41.31;37.63;64.49;;
72028;Laerm;59781;52.090;5.030;2023-04-01T02:19:27;41.26;37.99;63.92;;
72028;Laerm;59781;52.090;5.030;2023-04-01T02:22:01;42.70;38.22;59.34;;
72028;Laerm;59781;52.090;5.030;2023-04-01T02:24:33;42.49;38.30;55.29;;
72028;Laerm;59781;52.090;5.030;2023-04-01T02:27:01;41.25;37.72;61.77;;
72028;Laerm;59781;52.090;5.030;2023-04-01T02:29:28;43.04;38.06;67.88;;
72028;Laerm;59781;52.090;5.030;2023-04-01T02:31:55;40.69;38.03;62.98;;
72028;Laerm;59781;52.090;5.030;2023-04-01T02:34:24;41.16;37.98;51.85;;
72028;Laerm;59781;52.090;5.030;2023-04-01T02:36:51;40.15;37.88;46.44;;
72028;Laerm;59781;52.090;5.030;2023-04-01T02:39:18;39.70;37.59;53.03;;
72028;Laerm;59781;52.090;5.030;2023-04-01T02:41:46;41.57;37.87;53.65;;
72028;Laerm;59781;52.090;5.030;2023-04-01T02:44:15;43.67;38.39;70.41;;
72028;Laerm;59781;52.090;5.030;2023-04-01T02:46:42;40.77;38.12;48.16;;
72028;Laerm;59781;52.090;5.030;2023-04-01T02:49:08;40.52;37.42;49.25;;
72028;Laerm;59781;52.090;5.030;2023-04-01T02:51:34;40.65;37.27;57.80;;
72028;Laerm;59781;52.090;5.030;2023-04-01T02:54:01;40.09;37.81;46.91;;
72028;Laerm;59781;52.090;5.030;2023-04-01T02:56:27;40.65;37.21;55.58;;
72028;Laerm;59781;52.090;5.030;2023-04-01T02:58:54;39.95;37.33;47.64;;
72028;Laerm;59781;52.090;5.030;2023-04-01T03:01:20;39.71;37.49;46.64;;
72028;Laerm;59781;52.090;5.030;2023-04-01T03:03:47;40.24;37.62;52.71;;
72028;Laerm;59781;52.090;5.030;2023-04-01T03:06:16;40.05;37.49;56.44;;
72028;Laerm;59781;52.090;5.030;2023-04-01T03:08:42;40.05;37.75;49.88;;
72028;Laerm;59781;52.090;5.030;2023-04-01T03:11:09;41.15;37.48;59.65;;
72028;Laerm;59781;52.090;5.030;2023-04-01T03:13:36;42.33;37.86;69.01;;
72028;Laerm;59781;52.090;5.030;2023-04-01T03:16:02;42.07;37.34;65.77;;
72028;Laerm;59781;52.090;5.030;2023-04-01T03:18:28;39.39;37.50;50.96;;
72028;Laerm;59781;52.090;5.030;2023-04-01T03:20:56;40.38;37.37;46.69;;
72028;Laerm;59781;52.090;5.030;2023-04-01T03:23:22;39.48;37.38;56.55;;
72028;Laerm;59781;52.090;5.030;2023-04-01T03:25:49;39.17;37.30;54.34;;
72028;Laerm;59781;52.090;5.030;2023-04-01T03:28:16;40.83;37.45;49.03;;
72028;Laerm;59781;52.090;5.030;2023-04-01T03:30:42;39.84;37.53;45.72;;
72028;Laerm;59781;52.090;5.030;2023-04-01T03:33:08;40.40;37.39;49.48;;
72028;Laerm;59781;52.090;5.030;2023-04-01T03:35:34;42.71;38.24;68.77;;
72028;Laerm;59781;52.090;5.030;2023-04-01T03:38:02;43.26;39.29;70.82;;
72028;Laerm;59781;52.090;5.030;2023-04-01T03:40:28;42.16;38.47;57.74;;
72028;Laerm;59781;52.090;5.030;2023-04-01T03:42:54;40.51;37.80;66.01;;
72028;Laerm;59781;52.090;5.030;2023-04-01T03:45:21;40.12;37.26;57.41;;
72028;Laerm;59781;52.090;5.030;2023-04-01T03:47:47;43.14;37.92;73.55;;
72028;Laerm;59781;52.090;5.030;2023-04-01T03:50:12;43.49;38.43;65.70;;
72028;Laerm;59781;52.090;5.030;2023-04-01T03:52:38;42.32;38.39;69.56;;
72028;Laerm;59781;52.090;5.030;2023-04-01T03:55:05;41.19;37.99;48.86;;
72028;Laerm;59781;52.090;5.030;2023-04-01T03:57:31;44.31;37.76;77.84;;
72028;Laerm;59781;52.090;5.030;2023-04-01T04:00:02;39.91;37.34;46.31;;
72028;Laerm;59781;52.090;5.030;2023-04-01T04:02:28;39.86;37.50;59.43;;
72028;Laerm;59781;52.090;5.030;2023-04-01T04:04:54;39.58;37.55;47.56;;
72028;Laerm;59781;52.090;5.030;2023-04-01T04:07:20;40.44;37.90;52.97;;
72028;Laerm;59781;52.090;5.030;2023-04-01T04:10:12;40.41;37.14;50.26;;
72028;Laerm;59781;52.090;5.030;2023-04-01T04:12:37;39.96;37.84;49.00;;
72028;Laerm;59781;52.090;5.030;2023-04-01T04:15:04;39.99;37.65;48.17;;
72028;Laerm;59781;52.090;5.030;2023-04-01T04:17:29;39.78;37.64;46.62;;
72028;Laerm;59781;52.090;5.030;2023-04-01T04:19:55;40.02;37.77;50.23;;
72028;Laerm;59781;52.090;5.030;2023-04-01T04:22:21;40.80;37.67;49.39;;
72028;Laerm;59781;52.090;5.030;2023-04-01T04:24:47;39.75;37.83;48.93;;
72028;Laerm;59781;52.090;5.030;2023-04-01T04:27:12;40.72;37.99;47.61;;
72028;Laerm;59781;52.090;5.030;2023-04-01T04:29:50;41.59;37.63;55.82;;
72028;Laerm;59781;52.090;5.030;2023-04-01T04:32:16;43.28;38.03;56.90;;
72028;Laerm;59781;52.090;5.030;2023-04-01T04:34:42;42.72;38.02;56.29;;
72028;Laerm;59781;52.090;5.030;2023-04-01T04:37:08;51.88;37.72;71.85;;
72028;Laerm;59781;52.090;5.030;2023-04-01T04:39:35;53.25;38.31;73.53;;
72028;Laerm;59781;52.090;5.030;2023-04-01T04:42:01;51.93;37.86;71.93;;
72028;Laerm;59781;52.090;5.030;2023-04-01T04:44:27;48.59;38.21;68.08;;
72028;Laerm;59781;52.090;5.030;2023-04-01T04:46:53;52.93;37.81;71.90;;
72028;Laerm;59781;52.090;5.030;2023-04-01T04:49:19;52.21;38.00;72.85;;
72028;Laerm;59781;52.090;5.030;2023-04-01T04:51:45;47.18;38.10;71.19;;
72028;Laerm;59781;52.090;5.030;2023-04-01T04:54:13;41.65;37.53;53.77;;
72028;Laerm;59781;52.090;5.030;2023-04-01T04:57:08;41.61;37.66;57.68;;
72028;Laerm;59781;52.090;5.030;2023-04-01T04:59:40;50.49;37.51;67.75;;
72028;Laerm;59781;52.090;5.030;2023-04-01T05:02:17;44.37;38.28;61.49;;
72028;Laerm;59781;52.090;5.030;2023-04-01T05:04:43;55.14;38.97;68.65;;
72028;Laerm;59781;52.090;5.030;2023-04-01T05:07:10;43.51;37.45;62.55;;
72028;Laerm;59781;52.090;5.030;2023-04-01T05:09:36;47.63;38.13;65.65;;
72028;Laerm;59781;52.090;5.030;2023-04-01T05:12:03;48.16;37.94;68.14;;
72028;Laerm;59781;52.090;5.030;2023-04-01T05:14:42;49.24;37.85;70.43;;
72028;Laerm;59781;52.090;5.030;2023-04-01T05:17:11;44.80;37.82;67.48;;
72028;Laerm;59781;52.090;5.030;2023-04-01T05:19:38;46.12;38.27;69.26;;
72028;Laerm;59781;52.090;5.030;2023-04-01T05:22:05;41.89;38.97;49.53;;
72028;Laerm;59781;52.090;5.030;2023-04-01T05:24:33;42.92;38.95;50.22;;
72028;Laerm;59781;52.090;5.030;2023-04-01T05:26:59;51.19;39.51;67.91;;
72028;Laerm;59781;52.090;5.030;2023-04-01T05:29:26;45.95;39.24;61.01;;
72028;Laerm;59781;52.090;5.030;2023-04-01T05:32:00;41.51;38.13;51.07;;
72028;Laerm;59781;52.090;5.030;2023-04-01T05:34:25;43.96;39.26;58.41;;
72028;Laerm;59781;52.090;5.030;2023-04-01T05:36:51;49.71;38.49;68.47;;
72028;Laerm;59781;52.090;5.030;2023-04-01T05:39:17;51.48;39.58;65.71;;
72028;Laerm;59781;52.090;5.030;2023-04-01T05:41:43;52.74;39.74;67.72;;
72028;Laerm;59781;52.090;5.030;2023-04-01T05:44:12;48.83;39.16;67.07;;
72028;Laerm;59781;52.090;5.030;2023-04-01T05:46:41;49.53;38.99;66.75;;
72028;Laerm;59781;52.090;5.030;2023-04-01T05:49:19;48.28;40.08;65.86;;
72028;Laerm;59781;52.090;5.030;2023-04-01T05:51:45;48.32;39.49;67.20;;
72028;Laerm;59781;52.090;5.030;2023-04-01T05:54:11;47.02;39.33;65.39;;
72028;Laerm;59781;52.090;5.030;2023-04-01T05:56:37;45.79;39.65;65.96;;
72028;Laerm;59781;52.090;5.030;2023-04-01T05:59:03;47.51;40.24;68.89;;
72028;Laerm;59781;52.090;5.030;2023-04-01T06:01:28;45.72;38.76;68.53;;
72028;Laerm;59781;52.090;5.030;2023-04-01T06:03:54;44.35;39.61;60.63;;
72028;Laerm;59781;52.090;5.030;2023-04-01T06:06:26;44.24;39.18;60.00;;
72028;Laerm;59781;52.090;5.030;2023-04-01T06:09:15;42.71;38.92;55.91;;
72028;Laerm;59781;52.090;5.030;2023-04-01T06:23:38;47.76;40.18;65.76;;
72028;Laerm;59781;52.090;5.030;2023-04-01T06:26:59;55.47;39.98;78.35;;
72028;Laerm;59781;52.090;5.030;2023-04-01T06:38:48;47.33;41.38;61.26;;
72028;Laerm;59781;52.090;5.030;2023-04-01T06:45:02;46.35;40.51;70.09;;
72028;Laerm;59781;52.090;5.030;2023-04-01T06:48:16;46.33;41.86;68.43;;
72028;Laerm;59781;52.090;5.030;2023-04-01T06:54:51;46.92;42.60;69.76;;
72028;Laerm;59781;52.090;5.030;2023-04-01T06:57:49;46.63;42.19;61.48;;
72028;Laerm;59781;52.090;5.030;2023-04-01T07:00:27;48.47;43.32;68.53;;
72028;Laerm;59781;52.090;5.030;2023-04-01T07:03:19;46.66;42.18;56.61;;
72028;Laerm;59781;52.090;5.030;2023-04-01T07:05:46;47.25;42.10;62.61;;
72028;Laerm;59781;52.090;5.030;2023-04-01T07:08:23;48.39;42.40;69.07;;
72028;Laerm;59781;52.090;5.030;2023-04-01T07:11:06;46.45;41.64;55.11;;
72028;Laerm;59781;52.090;5.030;2023-04-01T07:14:33;49.15;41.41;67.76;;
72028;Laerm;59781;52.090;5.030;2023-04-01T07:19:58;51.20;41.86;65.49;;
72028;Laerm;59781;52.090;5.030;2023-04-01T07:22:41;49.20;42.77;61.00;;
72028;Laerm;59781;52.090;5.030;2023-04-01T07:25:53;47.03;42.26;67.68;;
72028;Laerm;59781;52.090;5.030;2023-04-01T07:28:39;46.95;42.03;56.80;;
72028;Laerm;59781;52.090;5.030;2023-04-01T07:31:54;48.75;42.40;72.15;;
72028;Laerm;59781;52.090;5.030;2023-04-01T07:38:04;47.06;42.44;66.29;;
72028;Laerm;59781;52.090;5.030;2023-04-01T07:40:47;46.83;42.04;57.81;;
72028;Laerm;59781;52.090;5.030;2023-04-01T07:43:38;46.25;41.44;62.50;;
72028;Laerm;59781;52.090;5.030;2023-04-01T07:50:05;48.20;42.67;60.81;;
72028;Laerm;59781;52.090;5.030;2023-04-01T07:55:32;46.22;41.78;57.19;;
72028;Laerm;59781;52.090;5.030;2023-04-01T08:17:40;45.63;40.68;55.41;;
72028;Laerm;59781;52.090;5.030;2023-04-01T08:20:39;45.79;40.86;58.83;;
72028;Laerm;59781;52.090;5.030;2023-04-01T08:25:48;48.95;43.19;69.24;;
72028;Laerm;59781;52.090;5.030;2023-04-01T08:28:32;47.96;42.45;59.67;;
72028;Laerm;59781;52.090;5.030;2023-04-01T08:31:41;46.41;41.43;60.13;;
72028;Laerm;59781;52.090;5.030;2023-04-01T08:34:34;50.79;41.53;82.09;;
72028;Laerm;59781;52.090;5.030;2023-04-01T08:37:36;47.66;41.88;56.71;;
72028;Laerm;59781;52.090;5.030;2023-04-01T08:45:55;45.82;42.31;52.84;;
72028;Laerm;59781;52.090;5.030;2023-04-01T08:57:36;46.53;41.73;64.08;;
72028;Laerm;59781;52.090;5.030;2023-04-01T09:00:54;46.72;41.62;62.34;;
72028;Laerm;59781;52.090;5.030;2023-04-01T09:04:00;54.76;41.41;81.93;;
72028;Laerm;59781;52.090;5.030;2023-04-01T09:09:50;47.84;41.94;69.91;;
72028;Laerm;59781;52.090;5.030;2023-04-01T09:15:40;46.76;41.53;58.40;;
72028;Laerm;59781;52.090;5.030;2023-04-01T09:27:28;48.65;41.46;62.55;;
72028;Laerm;59781;52.090;5.030;2023-04-01T09:30:31;45.33;41.24;52.90;;
72028;Laerm;59781;52.090;5.030;2023-04-01T09:46:09;45.91;41.21;56.67;;
72028;Laerm;59781;52.090;5.030;2023-04-01T09:52:06;45.99;41.82;56.07;;
72028;Laerm;59781;52.090;5.030;2023-04-01T10:04:11;50.45;42.02;66.49;;
72028;Laerm;59781;52.090;5.030;2023-04-01T10:13:47;46.93;41.76;62.05;;
72028;Laerm;59781;52.090;5.030;2023-04-01T10:17:08;47.15;41.09;59.61;;
72028;Laerm;59781;52.090;5.030;2023-04-01T10:22:56;51.92;42.39;66.90;;
72028;Laerm;59781;52.090;5.030;2023-04-01T10:51:24;51.00;40.61;68.09;;
72028;Laerm;59781;52.090;5.030;2023-04-01T11:17:40;50.47;44.22;68.28;;
72028;Laerm;59781;52.090;5.030;2023-04-01T11:20:32;49.50;43.23;77.74;;
72028;Laerm;59781;52.090;5.030;2023-04-01T11:23:32;47.88;41.97;73.34;;
72028;Laerm;59781;52.090;5.030;2023-04-01T11:29:04;48.48;41.72;63.72;;
72028;Laerm;59781;52.090;5.030;2023-04-01T11:32:02;46.43;41.32;59.84;;
72028;Laerm;59781;52.090;5.030;2023-04-01T11:38:43;45.76;41.22;56.27;;
72028;Laerm;59781;52.090;5.030;2023-04-01T11:44:17;47.92;41.75;65.75;;
72028;Laerm;59781;52.090;5.030;2023-04-01T11:59:18;49.28;44.01;66.95;;
72028;Laerm;59781;52.090;5.030;2023-04-01T12:02:03;51.48;46.85;66.36;;
72028;Laerm;59781;52.090;5.030;2023-04-01T12:05:11;59.30;49.13;76.49;;
72028;Laerm;59781;52.090;5.030;2023-04-01T12:07:56;55.35;49.80;76.16;;
72028;Laerm;59781;52.090;5.030;2023-04-01T12:10:44;55.64;48.61;73.57;;
72028;Laerm;59781;52.090;5.030;2023-04-01T12:13:34;52.09;46.94;73.52;;
72028;Laerm;59781;52.090;5.030;2023-04-01T12:19:09;47.78;41.78;63.78;;
72028;Laerm;59781;52.090;5.030;2023-04-01T12:21:55;56.30;43.45;75.80;;
72028;Laerm;59781;52.090;5.030;2023-04-01T12:24:49;47.29;42.59;69.11;;
72028;Laerm;59781;52.090;5.030;2023-04-01T12:30:37;50.54;42.14;73.54;;
72028;Laerm;59781;52.090;5.030;2023-04-01T12:33:59;54.81;41.44;75.53;;
72028;Laerm;59781;52.090;5.030;2023-04-01T12:36:53;47.81;41.02;62.31;;
72028;Laerm;59781;52.090;5.030;2023-04-01T12:39:48;45.93;40.41;55.11;;
72028;Laerm;59781;52.090;5.030;2023-04-01T12:45:34;45.30;40.36;59.16;;
72028;Laerm;59781;52.090;5.030;2023-04-01T12:48:23;54.86;41.99;76.21;;
72028;Laerm;59781;52.090;5.030;2023-04-01T12:51:36;46.03;39.85;58.90;;
72028;Laerm;59781;52.090;5.030;2023-04-01T12:54:39;47.57;41.07;70.31;;
72028;Laerm;59781;52.090;5.030;2023-04-01T13:01:28;45.17;40.17;56.12;;
72028;Laerm;59781;52.090;5.030;2023-04-01T13:07:36;44.86;40.70;59.17;;
72028;Laerm;59781;52.090;5.030;2023-04-01T13:12:59;46.58;41.08;66.00;;
72028;Laerm;59781;52.090;5.030;2023-04-01T13:15:52;46.31;41.40;63.64;;
72028;Laerm;59781;52.090;5.030;2023-04-01T13:18:52;46.63;41.00;61.20;;
72028;Laerm;59781;52.090;5.030;2023-04-01T13:21:42;51.81;40.09;68.74;;
72028;Laerm;59781;52.090;5.030;2023-04-01T13:27:40;45.88;39.06;64.11;;
72028;Laerm;59781;52.090;5.030;2023-04-01T13:36:32;45.73;41.33;59.41;;
72028;Laerm;59781;52.090;5.030;2023-04-01T13:42:27;46.95;42.70;59.63;;
72028;Laerm;59781;52.090;5.030;2023-04-01T13:45:23;48.91;44.59;62.24;;
72028;Laerm;59781;52.090;5.030;2023-04-01T13:48:36;48.43;43.82;66.30;;
72028;Laerm;59781;52.090;5.030;2023-04-01T13:51:29;48.37;44.08;74.33;;
72028;Laerm;59781;52.090;5.030;2023-04-01T13:54:41;48.62;44.37;63.58;;
72028;Laerm;59781;52.090;5.030;2023-04-01T14:03:17;49.38;43.37;59.86;;
72028;Laerm;59781;52.090;5.030;2023-04-01T14:09:11;46.51;41.02;57.16;;
72028;Laerm;59781;52.090;5.030;2023-04-01T14:20:59;49.26;41.67;63.87;;
72028;Laerm;59781;52.090;5.030;2023-04-01T14:26:40;47.59;43.75;66.64;;
72028;Laerm;59781;52.090;5.030;2023-04-01T14:39:15;48.19;42.60;73.67;;
72028;Laerm;59781;52.090;5.030;2023-04-01T14:45:20;46.61;42.40;59.09;;
72028;Laerm;59781;52.090;5.030;2023-04-01T14:48:21;48.95;42.93;68.36;;
72028;Laerm;59781;52.090;5.030;2023-04-01T14:50:55;46.19;41.32;58.80;;
72028;Laerm;59781;52.090;5.030;2023-04-01T14:53:40;52.74;40.93;72.46;;
72028;Laerm;59781;52.090;5.030;2023-04-01T14:56:11;45.85;40.30;65.82;;
72028;Laerm;59781;52.090;5.030;2023-04-01T14:58:43;50.62;41.46;62.39;;
72028;Laerm;59781;52.090;5.030;2023-04-01T15:04:23;48.08;42.31;66.33;;
72028;Laerm;59781;52.090;5.030;2023-04-01T15:10:40;53.93;41.11;74.10;;
72028;Laerm;59781;52.090;5.030;2023-04-01T15:13:12;55.69;42.39;70.78;;
72028;Laerm;59781;52.090;5.030;2023-04-01T15:19:29;54.60;40.36;89.27;;
72028;Laerm;59781;52.090;5.030;2023-04-01T15:39:19;44.87;41.17;56.89;;
72028;Laerm;59781;52.090;5.030;2023-04-01T15:45:15;50.54;40.22;64.41;;
72028;Laerm;59781;52.090;5.030;2023-04-01T15:48:17;45.08;40.11;58.52;;
72028;Laerm;59781;52.090;5.030;2023-04-01T16:16:07;45.30;40.47;71.11;;
72028;Laerm;59781;52.090;5.030;2023-04-01T16:24:34;44.83;40.20;56.92;;
72028;Laerm;59781;52.090;5.030;2023-04-01T16:27:12;43.55;39.76;57.38;;
72028;Laerm;59781;52.090;5.030;2023-04-01T16:29:53;45.18;40.16;59.00;;
72028;Laerm;59781;52.090;5.030;2023-04-01T16:32:50;46.66;41.12;63.85;;
72028;Laerm;59781;52.090;5.030;2023-04-01T16:38:50;46.12;40.20;67.49;;
72028;Laerm;59781;52.090;5.030;2023-04-01T16:41:34;44.53;39.99;59.80;;
72028;Laerm;59781;52.090;5.030;2023-04-01T16:44:20;44.54;40.28;55.15;;
72028;Laerm;59781;52.090;5.030;2023-04-01T16:47:12;45.06;39.98;59.21;;
72028;Laerm;59781;52.090;5.030;2023-04-01T16:49:53;45.34;40.20;58.57;;
72028;Laerm;59781;52.090;5.030;2023-04-01T16:52:53;45.17;40.10;58.98;;
72028;Laerm;59781;52.090;5.030;2023-04-01T16:58:22;44.54;40.89;57.83;;
72028;Laerm;59781;52.090;5.030;2023-04-01T17:01:11;53.22;40.73;83.92;;
72028;Laerm;59781;52.090;5.030;2023-04-01T17:03:45;46.57;40.98;64.31;;
72028;Laerm;59781;52.090;5.030;2023-04-01T17:06:36;45.37;40.89;60.04;;
72028;Laerm;59781;52.090;5.030;2023-04-01T17:18:23;45.87;40.59;62.52;;
72028;Laerm;59781;52.090;5.030;2023-04-01T17:21:05;44.72;39.78;62.82;;
72028;Laerm;59781;52.090;5.030;2023-04-01T17:23:36;43.86;40.03;54.96;;
72028;Laerm;59781;52.090;5.030;2023-04-01T17:26:26;46.24;40.51;66.51;;
72028;Laerm;59781;52.090;5.030;2023-04-01T17:32:19;47.53;40.24;66.13;;
72028;Laerm;59781;52.090;5.030;2023-04-01T17:35:09;44.89;40.36;63.62;;
72028;Laerm;59781;52.090;5.030;2023-04-01T17:37:57;45.46;39.94;55.17;;
72028;Laerm;59781;52.090;5.030;2023-04-01T18:09:51;43.39;39.34;53.79;;
72028;Laerm;59781;52.090;5.030;2023-04-01T18:18:54;42.17;39.11;48.87;;
72028;Laerm;59781;52.090;5.030;2023-04-01T18:21:49;42.33;38.93;55.55;;
72028;Laerm;59781;52.090;5.030;2023-04-01T18:24:45;43.01;39.10;54.48;;
72028;Laerm;59781;52.090;5.030;2023-04-01T18:27:29;43.00;38.69;67.63;;
72028;Laerm;59781;52.090;5.030;2023-04-01T18:30:13;43.39;39.20;53.15;;
72028;Laerm;59781;52.090;5.030;2023-04-01T18:32:54;45.52;39.77;67.78;;
72028;Laerm;59781;52.090;5.030;2023-04-01T18:35:56;43.05;39.03;51.76;;
72028;Laerm;59781;52.090;5.030;2023-04-01T18:38:57;42.38;38.28;53.55;;
72028;Laerm;59781;52.090;5.030;2023-04-01T18:41:42;41.96;38.31;45.66;;
72028;Laerm;59781;52.090;5.030;2023-04-01T18:44:49;42.30;38.76;49.88;;
72028;Laerm;59781;52.090;5.030;2023-04-01T18:53:38;42.38;39.18;51.24;;
72028;Laerm;59781;52.090;5.030;2023-04-01T18:56:14;42.94;39.00;52.90;;
72028;Laerm;59781;52.090;5.030;2023-04-01T19:02:03;42.53;38.94;55.82;;
72028;Laerm;59781;52.090;5.030;2023-04-01T19:05:07;43.75;38.88;59.46;;
72028;Laerm;59781;52.090;5.030;2023-04-01T19:07:54;46.53;39.58;71.60;;
72028;Laerm;59781;52.090;5.030;2023-04-01T19:15:57;43.41;39.05;51.81;;
72028;Laerm;59781;52.090;5.030;2023-04-01T19:21:28;48.30;39.23;63.03;;
72028;Laerm;59781;52.090;5.030;2023-04-01T19:30:19;42.63;38.91;54.79;;
72028;Laerm;59781;52.090;5.030;2023-04-01T19:36:24;41.43;38.63;47.05;;
72028;Laerm;59781;52.090;5.030;2023-04-01T19:39:37;41.43;38.16;51.89;;
72028;Laerm;59781;52.090;5.030;2023-04-01T19:48:44;41.91;38.02;46.72;;
72028;Laerm;59781;52.090;5.030;2023-04-01T19:51:25;43.07;39.00;52.04;;
72028;Laerm;59781;52.090;5.030;2023-04-01T19:54:27;43.18;38.57;56.27;;
72028;Laerm;59781;52.090;5.030;2023-04-01T19:57:09;43.00;38.30;56.83;;
72028;Laerm;59781;52.090;5.030;2023-04-01T20:06:35;42.73;38.77;61.18;;
72028;Laerm;59781;52.090;5.030;2023-04-01T20:09:33;42.30;38.53;50.71;;
72028;Laerm;59781;52.090;5.030;2023-04-01T20:15:02;42.16;38.19;47.08;;
72028;Laerm;59781;52.090;5.030;2023-04-01T20:17:45;41.72;38.46;49.36;;
72028;Laerm;59781;52.090;5.030;2023-04-01T20:25:39;42.13;38.78;53.79;;
72028;Laerm;59781;52.090;5.030;2023-04-01T20:28:21;42.92;38.52;51.09;;
72028;Laerm;59781;52.090;5.030;2023-04-01T20:31:23;41.35;38.66;52.99;;
72028;Laerm;59781;52.090;5.030;2023-04-01T20:39:57;42.44;38.55;57.08;;
72028;Laerm;59781;52.090;5.030;2023-04-01T20:43:13;41.95;38.58;56.25;;
72028;Laerm;59781;52.090;5.030;2023-04-01T20:46:22;42.39;38.33;59.26;;
72028;Laerm;59781;52.090;5.030;2023-04-01T20:51:43;42.66;38.82;53.10;;
72028;Laerm;59781;52.090;5.030;2023-04-01T20:58:08;42.06;38.38;53.53;;
72028;Laerm;59781;52.090;5.030;2023-04-01T21:00:57;42.56;38.72;55.29;;
72028;Laerm;59781;52.090;5.030;2023-04-01T21:10:05;43.23;39.19;63.79;;
72028;Laerm;59781;52.090;5.030;2023-04-01T21:13:24;42.15;38.28;50.24;;
72028;Laerm;59781;52.090;5.030;2023-04-01T21:16:23;41.24;38.36;50.61;;
72028;Laerm;59781;52.090;5.030;2023-04-01T21:35:19;42.54;39.49;46.61;;
72028;Laerm;59781;52.090;5.030;2023-04-01T21:38:27;42.22;39.41;46.44;;
72028;Laerm;59781;52.090;5.030;2023-04-01T21:44:34;42.42;39.18;54.38;;
72028;Laerm;59781;52.090;5.030;2023-04-01T21:47:33;41.69;38.40;51.98;;
72028;Laerm;59781;52.090;5.030;2023-04-01T21:50:39;41.52;38.54;53.52;;
72028;Laerm;59781;52.090;5.030;2023-04-01T21:53:42;42.34;39.20;52.78;;
72028;Laerm;59781;52.090;5.030;2023-04-01T21:59:43;41.13;38.13;52.69;;
72028;Laerm;59781;52.090;5.030;2023-04-01T22:11:25;41.19;38.21;48.33;;
72028;Laerm;59781;52.090;5.030;2023-04-01T22:14:29;41.67;38.76;51.15;;
72028;Laerm;59781;52.090;5.030;2023-04-01T22:17:20;41.65;38.74;49.59;;
72028;Laerm;59781;52.090;5.030;2023-04-01T22:20:01;50.40;38.54;66.52;;
72028;Laerm;59781;52.090;5.030;2023-04-01T22:23:15;41.68;37.77;57.91;;
72028;Laerm;59781;52.090;5.030;2023-04-01T22:25:52;41.17;38.35;46.43;;
72028;Laerm;59781;52.090;5.030;2023-04-01T22:31:25;41.90;38.51;50.64;;
72028;Laerm;59781;52.090;5.030;2023-04-01T22:34:55;40.93;37.80;51.44;;
72028;Laerm;59781;52.090;5.030;2023-04-01T22:40:34;41.00;38.31;49.67;;
72028;Laerm;59781;52.090;5.030;2023-04-01T22:43:11;41.77;38.21;52.49;;
72028;Laerm;59781;52.090;5.030;2023-04-01T22:48:44;40.81;38.04;46.33;;
72028;Laerm;59781;52.090;5.030;2023-04-01T22:54:27;44.70;38.71;70.42;;
72028;Laerm;59781;52.090;5.030;2023-04-01T22:57:07;42.08;39.22;48.70;;
72028;Laerm;59781;52.090;5.030;2023-04-01T23:02:21;40.84;37.62;46.90;;
72028;Laerm;59781;52.090;5.030;2023-04-01T23:04:57;41.28;38.53;45.84;;
72028;Laerm;59781;52.090;5.030;2023-04-01T23:07:59;40.51;38.35;45.14;;
72028;Laerm;59781;52.090;5.030;2023-04-01T23:10:42;40.93;38.13;46.14;;
72028;Laerm;59781;52.090;5.030;2023-04-01T23:13:28;41.49;38.22;48.30;;
72028;Laerm;59781;52.090;5.030;2023-04-01T23:15:58;41.37;37.70;50.72;;
72028;Laerm;59781;52.090;5.030;2023-04-01T23:19:00;41.27;37.99;51.49;;
72028;Laerm;59781;52.090;5.030;2023-04-01T23:21:49;42.24;38.23;59.67;;
72028;Laerm;59781;52.090;5.030;2023-04-01T23:24:53;43.02;38.24;67.78;;
72028;Laerm;59781;52.090;5.030;2023-04-01T23:27:37;42.14;38.68;54.29;;
72028;Laerm;59781;52.090;5.030;2023-04-01T23:33:30;40.79;37.91;50.19;;